Stewardson, Illinois
Current Conditions -  °F | °C
As of 11:55 AM on Friday 21 Nov 2014 (Local Time) from K1H2 Reporting Station
Clear Clear  
Wind Chill: 27°   Ceiling: Unl
Heat Index: 35°   Visibility: NA
Dew Point: 10°   Wind: 10mph
Humidity: 36%   Direction: 140°SE
Pressure: 30.44"   Gusts: NA
Location:  39.26°N, 88.63°W
Report Text: K1H2 211755Z AUTO 14009KT CLR 02/M12 A3044 RMK AO2 T00151123 10015 21075 PWINO
Loading
Personal Weather Stations






























Interactive Weather Map New forecast layout! Learn more

10-Day Weather Forecast

Advertisements
Track Severe Weather on mobile